createdAt,value
2022-10-01T00:02:01.099Z,100285.06
2022-10-01T00:04:28.294Z,100296.03
2022-10-01T00:06:54.886Z,100279.28
2022-10-01T00:09:21.359Z,100283.16
2022-10-01T00:11:47.824Z,100284.78
2022-10-01T00:14:14.284Z,100266.13
2022-10-01T00:16:40.765Z,100246.94
2022-10-01T00:19:07.264Z,100244.75
2022-10-01T00:21:33.960Z,100248.59
2022-10-01T00:24:05.451Z,100248.03
2022-10-01T00:26:34.933Z,100265.00
2022-10-01T00:29:12.056Z,100238.13
2022-10-01T00:31:39.113Z,100242.53
2022-10-01T00:34:06.523Z,100220.59
2022-10-01T00:36:33.544Z,100221.16
2022-10-01T00:39:00.604Z,100229.91
2022-10-01T00:41:29.842Z,100260.09
2022-10-01T00:43:59.372Z,100239.78
2022-10-01T00:46:40.117Z,100249.38
2022-10-01T00:49:11.393Z,100229.91
2022-10-01T00:51:43.428Z,100227.47
2022-10-01T00:54:37.486Z,100224.19
2022-10-01T00:57:06.733Z,100211.28
2022-10-01T00:59:35.109Z,100221.97
2022-10-01T01:02:01.774Z,100229.63
2022-10-01T01:04:28.647Z,100211.78
2022-10-01T01:06:58.256Z,100231.00
2022-10-01T01:09:32.946Z,100213.97
2022-10-01T01:12:21.149Z,100215.06
2022-10-01T01:14:50.470Z,100203.28
2022-10-01T01:17:26.317Z,100153.66
2022-10-01T01:20:18.951Z,100124.63
2022-10-01T01:23:06.165Z,100108.19
2022-10-01T01:25:47.343Z,100109.28
2022-10-01T01:28:31.476Z,100127.63
2022-10-01T01:31:05.872Z,100111.75
2022-10-01T01:33:35.089Z,100135.84
2022-10-01T01:36:07.007Z,100133.66
2022-10-01T01:38:40.209Z,100144.59
2022-10-01T01:41:09.026Z,100151.19
2022-10-01T01:43:40.697Z,100149.81
2022-10-01T01:46:10.501Z,100150.91
2022-10-01T01:48:40.191Z,100139.94
2022-10-01T01:51:14.438Z,100109.81
2022-10-01T01:53:41.305Z,100121.34
2022-10-01T01:56:08.454Z,100122.69
2022-10-01T01:58:35.935Z,100111.44
2022-10-01T02:01:03.036Z,100117.75
2022-10-01T02:03:32.487Z,100112.00
2022-10-01T02:06:18.796Z,100120.22
2022-10-01T02:08:54.795Z,100096.13
2022-10-01T02:11:28.454Z,100085.69
2022-10-01T02:14:01.947Z,100093.31
2022-10-01T02:16:55.984Z,100084.06
2022-10-01T02:19:51.290Z,100085.09
2022-10-01T02:22:23.011Z,100074.16
2022-10-01T02:24:59.090Z,100078.56
2022-10-01T02:27:47.966Z,100067.06
2022-10-01T02:30:15.265Z,100075.25
2022-10-01T02:32:45.420Z,100065.13
2022-10-01T02:35:15.144Z,100069.22
2022-10-01T02:37:44.489Z,100072.50
2022-10-01T02:40:15.775Z,100056.06
2022-10-01T02:42:48.861Z,100040.75
2022-10-01T02:45:22.780Z,100036.34
2022-10-01T02:48:02.015Z,100042.09
2022-10-01T02:50:34.101Z,100047.03
2022-10-01T02:53:07.193Z,100039.38
2022-10-01T02:55:38.489Z,100045.38
2022-10-01T02:58:05.871Z,100058.84
2022-10-01T03:00:32.396Z,100045.72
2022-10-01T03:02:59.033Z,100030.63
2022-10-01T03:05:25.647Z,100034.19
2022-10-01T03:07:52.602Z,100050.03
2022-10-01T03:10:19.741Z,100043.19
2022-10-01T03:12:46.824Z,100051.41
2022-10-01T03:15:14.900Z,100050.34
2022-10-01T03:17:41.349Z,100039.41
2022-10-01T03:20:08.821Z,100053.09
2022-10-01T03:22:35.423Z,100049.22
2022-10-01T03:25:01.893Z,100038.53
2022-10-01T03:27:28.408Z,100035.84
2022-10-01T03:29:54.887Z,100033.94
2022-10-01T03:32:21.465Z,100035.03
2022-10-01T03:34:48.101Z,100034.44
2022-10-01T03:37:14.740Z,100039.69
2022-10-01T03:39:41.188Z,100031.47
2022-10-01T03:42:07.653Z,100032.03
2022-10-01T03:44:34.495Z,100034.47
2022-10-01T03:47:00.949Z,100029.81
2022-10-01T03:49:28.142Z,100038.31
2022-10-01T03:51:54.676Z,100047.34
2022-10-01T03:54:21.659Z,100056.97
2022-10-01T03:56:48.838Z,100050.66
2022-10-01T03:59:15.868Z,100056.13
2022-10-01T04:01:42.426Z,100050.38
2022-10-01T04:04:09.278Z,100043.81
2022-10-01T04:06:35.939Z,100042.41
2022-10-01T04:09:02.966Z,100044.06
2022-10-01T04:11:30.088Z,100036.94
2022-10-01T04:13:57.897Z,100048.16
2022-10-01T04:16:24.886Z,100042.97
2022-10-01T04:18:51.413Z,100041.34
2022-10-01T04:21:17.943Z,100047.34
2022-10-01T04:23:44.427Z,100052.84
2022-10-01T04:26:11.026Z,100043.25
2022-10-01T04:28:37.594Z,100057.50
2022-10-01T04:31:23.047Z,100054.22
2022-10-01T04:33:49.627Z,100067.09
2022-10-01T04:36:16.221Z,100061.59
2022-10-01T04:38:42.814Z,100059.97
2022-10-01T04:41:09.443Z,100065.44
2022-10-01T04:43:36.576Z,100070.09
2022-10-01T04:46:03.081Z,100073.13
2022-10-01T04:48:29.576Z,100082.44
2022-10-01T04:50:56.044Z,100089.59
2022-10-01T04:53:22.512Z,100084.91
2022-10-01T04:55:48.988Z,100080.78
2022-10-01T04:58:15.452Z,100089.03
2022-10-01T05:00:41.986Z,100097.25
2022-10-01T05:03:08.494Z,100090.69
2022-10-01T05:05:35.118Z,100092.31
2022-10-01T05:08:02.117Z,100095.59
2022-10-01T05:10:28.981Z,100095.59
2022-10-01T05:12:55.428Z,100097.22
2022-10-01T05:15:21.908Z,100093.41
2022-10-01T05:17:48.396Z,100113.16
2022-10-01T05:20:23.529Z,100108.50
2022-10-01T05:22:50.076Z,100114.78
2022-10-01T05:25:17.396Z,100113.97
2022-10-01T05:27:44.511Z,100119.16
2022-10-01T05:30:13.356Z,100119.72
2022-10-01T05:32:40.089Z,100131.22
2022-10-01T05:35:07.596Z,100133.97
2022-10-01T05:37:34.491Z,100133.72
2022-10-01T05:40:01.620Z,100130.13
2022-10-01T05:42:28.180Z,100133.72
2022-10-01T05:44:55.974Z,100132.31
2022-10-01T05:47:22.855Z,100146.03
2022-10-01T05:49:49.384Z,100141.13
2022-10-01T05:52:16.553Z,100150.97
2022-10-01T05:54:43.103Z,100153.44
2022-10-01T05:57:10.026Z,100154.28
2022-10-01T05:59:36.575Z,100150.44
2022-10-01T06:02:04.107Z,100157.53
2022-10-01T06:04:30.979Z,100151.25
2022-10-01T06:06:57.446Z,100154.81
2022-10-01T06:09:23.890Z,100162.19
2022-10-01T06:11:50.376Z,100160.28
2022-10-01T06:14:17.008Z,100165.78
2022-10-01T06:16:43.586Z,100168.78
2022-10-01T06:19:10.350Z,100181.41
2022-10-01T06:21:37.497Z,100188.00
2022-10-01T06:24:04.644Z,100187.16
2022-10-01T06:26:31.204Z,100184.16
2022-10-01T06:28:57.742Z,100186.06
2022-10-01T06:31:24.273Z,100172.91
2022-10-01T06:33:50.813Z,100181.13
2022-10-01T06:36:17.348Z,100190.75
2022-10-01T06:38:43.871Z,100179.78
2022-10-01T06:41:10.901Z,100188.53
2022-10-01T06:43:37.358Z,100195.13
2022-10-01T06:46:05.183Z,100190.47
2022-10-01T06:48:32.675Z,100189.38
2022-10-01T06:50:59.388Z,100192.94
2022-10-01T06:53:27.976Z,100203.91
2022-10-01T06:55:55.361Z,100200.06
2022-10-01T06:58:26.253Z,100206.38
2022-10-01T07:00:58.032Z,100202.25
2022-10-01T07:03:24.675Z,100198.69
2022-10-01T07:05:51.204Z,100206.91
2022-10-01T07:08:18.168Z,100211.84
2022-10-01T07:10:45.460Z,100211.31
2022-10-01T07:13:17.013Z,100229.44
2022-10-01T07:15:45.260Z,100234.63
2022-10-01T07:18:12.696Z,100222.56
2022-10-01T07:20:40.353Z,100223.38
2022-10-01T07:23:10.982Z,100228.59
2022-10-01T07:25:38.839Z,100230.22
2022-10-01T07:28:07.182Z,100240.91
2022-10-01T07:30:34.401Z,100243.69
2022-10-01T07:33:00.881Z,100243.13
2022-10-01T07:35:28.412Z,100239.56
2022-10-01T07:37:55.242Z,100244.50
2022-10-01T07:40:21.882Z,100256.03
2022-10-01T07:42:56.087Z,100258.50
2022-10-01T07:45:24.308Z,100264.56
2022-10-01T07:48:04.165Z,100267.00
2022-10-01T07:50:30.771Z,100267.84
2022-10-01T07:52:58.681Z,100271.66
2022-10-01T07:55:27.867Z,100281.03
2022-10-01T07:57:56.011Z,100270.59
2022-10-01T08:00:25.244Z,100294.19
2022-10-01T08:02:54.215Z,100279.38
2022-10-01T08:05:23.142Z,100283.22
2022-10-01T08:07:50.004Z,100298.84
2022-10-01T08:10:19.464Z,100303.53
2022-10-01T08:12:46.571Z,100303.00
2022-10-01T08:15:15.683Z,100304.09
2022-10-01T08:17:42.463Z,100307.63
2022-10-01T08:20:11.847Z,100322.19
2022-10-01T08:22:41.880Z,100324.38
2022-10-01T08:25:09.466Z,100334.28
2022-10-01T08:27:36.523Z,100330.16
2022-10-01T08:30:03.240Z,100328.22
2022-10-01T08:32:30.855Z,100330.97
2022-10-01T08:34:57.573Z,100338.13
2022-10-01T08:37:27.044Z,100332.06
2022-10-01T08:39:54.571Z,100338.13
2022-10-01T08:42:39.248Z,100340.88
2022-10-01T08:45:17.317Z,100347.72
2022-10-01T08:47:55.383Z,100343.06
2022-10-01T08:50:32.620Z,100336.44
2022-10-01T08:53:03.004Z,100329.56
2022-10-01T08:55:36.310Z,100347.72
2022-10-01T08:58:10.636Z,100340.81
2022-10-01T09:00:41.852Z,100346.59
2022-10-01T09:03:12.547Z,100348.19
2022-10-01T09:05:53.903Z,100348.47
2022-10-01T09:08:45.290Z,100363.56
2022-10-01T09:11:30.817Z,100358.88
2022-10-01T09:14:24.974Z,100369.31
2022-10-01T09:17:06.053Z,100376.44
2022-10-01T09:19:40.764Z,100374.81
2022-10-01T09:22:19.516Z,100382.50
2022-10-01T09:24:53.938Z,100388.50
2022-10-01T09:27:25.536Z,100389.34
2022-10-01T09:30:00.734Z,100396.19
2022-10-01T09:32:53.695Z,100391.25
2022-10-01T09:35:28.880Z,100399.47
2022-10-01T09:38:06.262Z,100392.84
2022-10-01T09:40:54.789Z,100387.31
2022-10-01T09:43:31.083Z,100381.75
2022-10-01T09:45:58.015Z,100376.81
2022-10-01T09:48:50.649Z,100385.00
2022-10-01T09:51:40.065Z,100387.94
2022-10-01T09:54:16.538Z,100401.66
2022-10-01T09:56:48.085Z,100391.72
2022-10-01T09:59:22.507Z,100398.28
2022-10-01T10:01:53.633Z,100397.44
2022-10-01T10:04:23.492Z,100404.03
2022-10-01T10:06:51.898Z,100404.91
2022-10-01T10:09:24.246Z,100414.31
2022-10-01T10:11:51.204Z,100425.31
2022-10-01T10:14:24.776Z,100419.50
2022-10-01T10:16:51.281Z,100426.34
2022-10-01T10:19:24.710Z,100436.28
2022-10-01T10:21:57.415Z,100428.34
2022-10-01T10:24:35.859Z,100436.88
2022-10-01T10:27:05.945Z,100434.97
2022-10-01T10:29:37.356Z,100443.19
2022-10-01T10:32:26.072Z,100456.38
2022-10-01T10:35:02.083Z,100459.66
2022-10-01T10:37:34.063Z,100467.91
2022-10-01T10:40:01.008Z,100470.63
2022-10-01T10:42:27.579Z,100475.53
2022-10-01T10:44:58.113Z,100480.75
2022-10-01T10:47:26.103Z,100489.22
2022-10-01T10:49:57.383Z,100481.47
2022-10-01T10:52:33.726Z,100487.19
2022-10-01T10:55:01.977Z,100487.97
2022-10-01T10:57:31.102Z,100508.13
2022-10-01T11:00:16.004Z,100510.06
2022-10-01T11:02:52.221Z,100505.69
2022-10-01T11:05:21.857Z,100514.59
2022-10-01T11:07:53.330Z,100519.03
2022-10-01T11:10:35.330Z,100536.34
2022-10-01T11:13:18.496Z,100531.41
2022-10-01T11:16:05.319Z,100525.06
2022-10-01T11:18:37.820Z,100535.84
2022-10-01T11:21:22.043Z,100530.06
2022-10-01T11:24:10.288Z,100532.81
2022-10-01T11:27:06.215Z,100550.44
2022-10-01T11:29:50.763Z,100541.06
2022-10-01T11:32:46.077Z,100552.53
2022-10-01T11:35:26.083Z,100545.94
2022-10-01T11:38:05.090Z,100550.34
2022-10-01T11:40:43.614Z,100550.34
2022-10-01T11:43:32.684Z,100558.63
2022-10-01T11:46:06.734Z,100564.66
2022-10-01T11:49:08.828Z,100579.00
2022-10-01T11:51:41.489Z,100577.03
2022-10-01T11:54:13.333Z,100566.47
2022-10-01T11:57:11.733Z,100584.94
2022-10-01T11:59:50.583Z,100571.03
2022-10-01T12:02:38.934Z,100589.47
2022-10-01T12:05:17.032Z,100586.84
2022-10-01T12:08:14.024Z,100580.59
2022-10-01T12:10:45.635Z,100594.84
2022-10-01T12:13:34.076Z,100589.78
2022-10-01T12:16:30.422Z,100594.09
2022-10-01T12:19:14.792Z,100592.53
2022-10-01T12:21:45.842Z,100598.59
2022-10-01T12:24:41.407Z,100593.72
2022-10-01T12:27:26.240Z,100610.75
2022-10-01T12:30:06.176Z,100608.63
2022-10-01T12:33:05.981Z,100618.56
2022-10-01T12:36:03.778Z,100617.31
2022-10-01T12:38:55.453Z,100629.72
2022-10-01T12:41:46.224Z,100618.91
2022-10-01T12:44:50.842Z,100624.28
2022-10-01T12:47:38.161Z,100624.16
2022-10-01T12:50:22.761Z,100649.56
2022-10-01T12:53:02.656Z,100648.94
2022-10-01T12:55:56.479Z,100653.50
2022-10-01T12:58:51.213Z,100657.69
2022-10-01T13:01:38.570Z,100660.09
2022-10-01T13:04:30.095Z,100659.13
2022-10-01T13:07:14.987Z,100663.19
2022-10-01T13:10:08.254Z,100671.78
2022-10-01T13:13:07.652Z,100673.41
2022-10-01T13:15:44.541Z,100679.03
2022-10-01T13:18:31.432Z,100676.56
2022-10-01T13:21:30.202Z,100694.53
2022-10-01T13:24:05.539Z,100696.25
2022-10-01T13:26:57.698Z,100703.22
2022-10-01T13:29:45.139Z,100717.88
2022-10-01T13:32:33.878Z,100721.72
2022-10-01T13:35:03.600Z,100712.66
2022-10-01T13:37:30.014Z,100721.47
2022-10-01T13:39:57.914Z,100718.44
2022-10-01T13:42:46.974Z,100727.78
2022-10-01T13:45:37.695Z,100732.94
2022-10-01T13:48:10.337Z,100732.56
2022-10-01T13:50:39.116Z,100726.97
2022-10-01T13:53:17.095Z,100739.56
2022-10-01T13:55:46.329Z,100746.47
2022-10-01T13:58:31.133Z,100752.16
2022-10-01T14:01:00.988Z,100748.75
2022-10-01T14:03:30.502Z,100757.78
2022-10-01T14:05:57.826Z,100750.84
2022-10-01T14:08:33.609Z,100754.63
2022-10-01T14:11:23.763Z,100763.16
2022-10-01T14:14:11.151Z,100771.38
2022-10-01T14:16:41.347Z,100764.19
2022-10-01T14:19:09.520Z,100768.00
2022-10-01T14:21:49.667Z,100774.31
2022-10-01T14:24:54.003Z,100780.31
2022-10-01T14:27:43.531Z,100781.91
2022-10-01T14:30:23.288Z,100784.22
2022-10-01T14:33:03.862Z,100793.19
2022-10-01T14:35:35.265Z,100793.50
2022-10-01T14:38:10.822Z,100795.75
2022-10-01T14:40:42.660Z,100795.28
2022-10-01T14:43:20.983Z,100803.59
2022-10-01T14:46:02.815Z,100803.94
2022-10-01T14:48:32.143Z,100807.28
2022-10-01T14:51:04.685Z,100805.34
2022-10-01T14:53:34.335Z,100809.31
2022-10-01T14:56:14.298Z,100819.28
2022-10-01T14:58:52.777Z,100812.34
2022-10-01T15:01:21.273Z,100820.84
2022-10-01T15:03:48.733Z,100812.34
2022-10-01T15:06:18.658Z,100831.44
2022-10-01T15:08:51.245Z,100828.19
2022-10-01T15:11:22.175Z,100827.88
2022-10-01T15:13:51.113Z,100834.13
2022-10-01T15:16:22.160Z,100832.41
2022-10-01T15:18:53.425Z,100839.72
2022-10-01T15:21:24.821Z,100838.66
2022-10-01T15:23:51.633Z,100843.69
2022-10-01T15:26:22.360Z,100852.78
2022-10-01T15:28:49.715Z,100852.19
2022-10-01T15:31:16.886Z,100863.59
2022-10-01T15:33:43.623Z,100859.50
2022-10-01T15:36:17.067Z,100872.31
2022-10-01T15:38:45.712Z,100877.59
2022-10-01T15:41:31.414Z,100877.34
2022-10-01T15:44:02.407Z,100872.50
2022-10-01T15:46:35.084Z,100887.97
2022-10-01T15:49:17.256Z,100886.56
2022-10-01T15:52:17.568Z,100881.91
2022-10-01T15:54:45.512Z,100894.25
2022-10-01T15:57:20.067Z,100897.84
2022-10-01T15:59:48.760Z,100882.31
2022-10-01T16:02:22.766Z,100899.41
2022-10-01T16:04:52.729Z,100896.31
2022-10-01T16:07:21.884Z,100909.78
2022-10-01T16:09:56.114Z,100914.25
2022-10-01T16:12:23.317Z,100908.13
2022-10-01T16:15:29.735Z,100918.03
2022-10-01T16:18:04.835Z,100913.13
2022-10-01T16:20:44.766Z,100913.88
2022-10-01T16:23:34.413Z,100923.25
2022-10-01T16:26:02.431Z,100923.34
2022-10-01T16:28:35.766Z,100932.19
2022-10-01T16:31:04.384Z,100925.09
2022-10-01T16:33:30.941Z,100926.69
2022-10-01T16:36:11.027Z,100936.91
2022-10-01T16:38:37.569Z,100936.97
2022-10-01T16:41:05.324Z,100946.94
2022-10-01T16:43:32.212Z,100946.38
2022-10-01T16:45:59.228Z,100958.88
2022-10-01T16:48:25.925Z,100954.75
2022-10-01T16:50:58.879Z,100965.84
2022-10-01T16:53:26.630Z,100964.16
2022-10-01T16:55:54.720Z,100965.31
2022-10-01T16:58:21.680Z,100971.41
2022-10-01T17:00:48.251Z,100977.19
2022-10-01T17:03:17.587Z,100991.25
2022-10-01T17:05:45.031Z,100990.41
2022-10-01T17:08:12.176Z,100986.88
2022-10-01T17:10:47.993Z,100997.34
2022-10-01T17:13:15.681Z,100997.66
2022-10-01T17:15:43.091Z,100996.28
2022-10-01T17:18:09.808Z,101003.75
2022-10-01T17:20:38.129Z,101017.81
2022-10-01T17:23:05.577Z,101020.00
2022-10-01T17:25:35.556Z,101024.72
2022-10-01T17:28:04.668Z,101022.53
2022-10-01T17:30:32.674Z,101032.72
2022-10-01T17:33:00.346Z,101035.19
2022-10-01T17:35:28.464Z,101043.50
2022-10-01T17:37:55.273Z,101051.22
2022-10-01T17:40:21.760Z,101048.72
2022-10-01T17:42:48.257Z,101049.25
2022-10-01T17:45:14.742Z,101053.97
2022-10-01T17:47:46.419Z,101057.53
2022-10-01T17:50:13.690Z,101058.09
2022-10-01T17:52:40.224Z,101060.31
2022-10-01T17:55:07.635Z,101065.56
2022-10-01T17:57:34.348Z,101065.25
2022-10-01T18:00:01.043Z,101071.88
2022-10-01T18:02:41.597Z,101084.31
2022-10-01T18:05:09.646Z,101090.34
2022-10-01T18:07:38.995Z,101093.38
2022-10-01T18:10:07.734Z,101092.84
2022-10-01T18:12:34.630Z,101087.56
2022-10-01T18:15:01.788Z,101094.22
2022-10-01T18:17:28.294Z,101093.91
2022-10-01T18:19:54.812Z,101111.03
2022-10-01T18:22:21.646Z,101112.09
2022-10-01T18:24:48.121Z,101103.81
2022-10-01T18:27:14.845Z,101117.00
2022-10-01T18:29:41.614Z,101124.25
2022-10-01T18:32:19.009Z,101125.88
2022-10-01T18:35:01.533Z,101125.31
2022-10-01T18:38:09.464Z,101133.34
2022-10-01T18:40:42.151Z,101132.44
2022-10-01T18:43:14.020Z,101141.81
2022-10-01T18:46:18.664Z,101141.22
2022-10-01T18:49:17.634Z,101149.78
2022-10-01T18:51:51.833Z,101155.78
2022-10-01T18:54:48.904Z,101152.81
2022-10-01T18:57:40.899Z,101162.69
2022-10-01T19:00:28.704Z,101159.53
2022-10-01T19:03:46.146Z,101168.78
2022-10-01T19:06:48.684Z,101173.94
2022-10-01T19:09:43.524Z,101177.47
2022-10-01T19:12:12.656Z,101173.53
2022-10-01T19:15:00.405Z,101176.38
2022-10-01T19:18:05.117Z,101186.31
2022-10-01T19:20:46.428Z,101184.13
2022-10-01T19:23:24.987Z,101195.91
2022-10-01T19:26:03.595Z,101202.22
2022-10-01T19:28:39.154Z,101196.44
2022-10-01T19:31:51.707Z,101193.16
2022-10-01T19:34:22.505Z,101189.53
2022-10-01T19:36:54.420Z,101198.38
2022-10-01T19:39:25.120Z,101204.31
2022-10-01T19:42:02.111Z,101192.53
2022-10-01T19:44:39.941Z,101197.22
2022-10-01T19:47:23.025Z,101207.34
2022-10-01T19:49:51.378Z,101208.34
2022-10-01T19:52:19.618Z,101213.03
2022-10-01T19:54:55.716Z,101222.13
2022-10-01T19:57:24.748Z,101220.81
2022-10-01T19:59:55.712Z,101228.41
2022-10-01T20:02:32.215Z,101228.94
2022-10-01T20:05:05.452Z,101235.53
2022-10-01T20:07:45.711Z,101235.53
2022-10-01T20:10:26.708Z,101242.94
2022-10-01T20:13:04.452Z,101239.72
2022-10-01T20:15:57.112Z,101243.78
2022-10-01T20:19:02.116Z,101245.22
2022-10-01T20:21:57.712Z,101238.28
2022-10-01T20:24:46.206Z,101244.31
2022-10-01T20:27:30.945Z,101241.84
2022-10-01T20:30:04.723Z,101240.50
2022-10-01T20:32:59.760Z,101252.28
2022-10-01T20:35:26.268Z,101244.78
2022-10-01T20:38:11.273Z,101254.47
2022-10-01T20:40:50.087Z,101265.34
2022-10-01T20:43:31.262Z,101266.06
2022-10-01T20:46:03.861Z,101260.88
2022-10-01T20:48:36.714Z,101264.47
2022-10-01T20:51:12.105Z,101268.81
2022-10-01T20:54:06.684Z,101275.72
2022-10-01T20:56:44.968Z,101287.44
2022-10-01T20:59:18.114Z,101273.38
2022-10-01T21:01:53.466Z,101277.19
2022-10-01T21:04:26.167Z,101278.59
2022-10-01T21:07:00.997Z,101277.44
2022-10-01T21:09:47.069Z,101283.59
2022-10-01T21:12:21.456Z,101288.97
2022-10-01T21:14:55.593Z,101291.84
2022-10-01T21:17:43.975Z,101292.16
2022-10-01T21:20:43.935Z,101297.34
2022-10-01T21:23:42.820Z,101298.69
2022-10-01T21:26:27.807Z,101302.25
2022-10-01T21:29:16.752Z,101306.16
2022-10-01T21:32:15.243Z,101309.69
2022-10-01T21:34:59.526Z,101300.75
2022-10-01T21:37:39.400Z,101305.84
2022-10-01T21:40:26.347Z,101308.38
2022-10-01T21:43:04.721Z,101305.25
2022-10-01T21:45:43.016Z,101317.31
2022-10-01T21:48:24.524Z,101316.00
2022-10-01T21:51:02.308Z,101307.97
2022-10-01T21:53:56.438Z,101316.00
2022-10-01T21:56:44.860Z,101316.53
2022-10-01T21:59:53.266Z,101318.22
2022-10-01T22:02:42.309Z,101322.81
2022-10-01T22:05:23.699Z,101339.56
2022-10-01T22:08:03.484Z,101341.84
2022-10-01T22:10:40.938Z,101334.97
2022-10-01T22:13:15.936Z,101350.31
2022-10-01T22:15:44.519Z,101338.47
2022-10-01T22:18:35.516Z,101342.06
2022-10-01T22:21:10.531Z,101348.00
2022-10-01T22:23:46.406Z,101351.53
2022-10-01T22:26:17.302Z,101354.34
2022-10-01T22:28:54.163Z,101355.38
2022-10-01T22:31:32.714Z,101352.34
2022-10-01T22:34:10.776Z,101354.47
2022-10-01T22:36:52.394Z,101355.38
2022-10-01T22:39:29.564Z,101354.28
2022-10-01T22:42:07.092Z,101353.91
2022-10-01T22:44:33.832Z,101354.34
2022-10-01T22:47:03.199Z,101359.59
2022-10-01T22:49:44.061Z,101354.69
2022-10-01T22:52:44.619Z,101362.09
2022-10-01T22:55:39.131Z,101360.63
2022-10-01T22:58:08.914Z,101354.28
2022-10-01T23:01:02.345Z,101363.19
2022-10-01T23:03:45.053Z,101367.09
2022-10-01T23:06:23.873Z,101368.13
2022-10-01T23:08:56.725Z,101362.75
2022-10-01T23:11:39.989Z,101368.69
2022-10-01T23:14:36.336Z,101373.44
2022-10-01T23:17:06.208Z,101368.66
2022-10-01T23:20:00.198Z,101363.47
2022-10-01T23:22:46.280Z,101381.03
2022-10-01T23:25:23.770Z,101375.78
2022-10-01T23:27:53.202Z,101376.56
2022-10-01T23:30:20.549Z,101378.22
2022-10-01T23:32:56.017Z,101374.91
2022-10-01T23:35:35.019Z,101378.47
2022-10-01T23:38:06.743Z,101375.88
2022-10-01T23:40:36.383Z,101416.59
2022-10-01T23:43:24.202Z,101421.38
2022-10-01T23:46:07.110Z,101418.53
2022-10-01T23:48:39.968Z,101412.44
2022-10-01T23:51:13.242Z,101424.78
2022-10-01T23:53:49.277Z,101430.69
2022-10-01T23:56:39.800Z,101413.13
2022-10-01T23:59:15.896Z,101418.88
